Time;durP1;ratioP1;P1;durP2;ratioP2;P2;SDS_P1;SDS_P2;PMS_P1;PMS_P2;Temp;Humidity;BMP_temperature;BMP_pressure;BME280_temperature;BME280_humidity;BME280_pressure;Samples;Min_cycle;Max_cycle;Signal;HPM_P1;HPM_P2
2023/07/24 00:01:51;;;;;;;3.70;2.88;;;;;;;;;;5046824;28;20183;-50
2023/07/24 00:04:17;;;;;;;5.85;2.97;;;;;;;;;;5053954;28;20190;-50
2023/07/24 00:06:43;;;;;;;4.07;3.00;;;;;;;;;;5048663;28;20612;-49
2023/07/24 00:09:09;;;;;;;3.35;2.60;;;;;;;;;;5054680;28;20195;-50
2023/07/24 00:11:35;;;;;;;5.50;2.63;;;;;;;;;;5047096;28;20266;-49
2023/07/24 00:14:01;;;;;;;3.58;2.90;;;;;;;;;;5053103;28;20210;-49
2023/07/24 00:16:27;;;;;;;3.95;2.67;;;;;;;;;;5045650;28;20203;-50
2023/07/24 00:18:53;;;;;;;3.65;2.90;;;;;;;;;;5047966;28;20179;-50
2023/07/24 00:21:19;;;;;;;4.45;2.63;;;;;;;;;;5046704;28;20191;-50
2023/07/24 00:23:44;;;;;;;3.75;2.60;;;;;;;;;;5059269;28;20688;-49
2023/07/24 00:26:10;;;;;;;5.57;2.97;;;;;;;;;;5054595;28;20195;-51
2023/07/24 00:28:36;;;;;;;4.05;2.30;;;;;;;;;;5054905;28;20179;-50
2023/07/24 00:31:02;;;;;;;3.60;2.95;;;;;;;;;;5053143;28;20238;-50
2023/07/24 00:33:28;;;;;;;4.20;2.88;;;;;;;;;;5043630;28;20241;-51
2023/07/24 00:35:57;;;;;;;4.30;2.70;;;;;;;;;;5046884;28;20270;-50
2023/07/24 00:38:23;;;;;;;2.95;2.50;;;;;;;;;;5054006;28;20187;-50
2023/07/24 00:40:50;;;;;;;5.75;2.67;;;;;;;;;;5054600;28;20241;-51
2023/07/24 00:43:16;;;;;;;3.30;2.60;;;;;;;;;;5054226;28;20176;-49
2023/07/24 00:45:42;;;;;;;5.88;2.80;;;;;;;;;;5052527;28;20191;-50
2023/07/24 00:48:08;;;;;;;4.07;2.60;;;;;;;;;;5046861;28;20191;-50
2023/07/24 00:50:36;;;;;;;5.18;2.85;;;;;;;;;;5051998;28;20274;-50
2023/07/24 00:53:02;;;;;;;4.03;2.72;;;;;;;;;;5057802;28;20453;-49
2023/07/24 00:55:28;;;;;;;5.40;2.90;;;;;;;;;;5048106;28;20604;-50
2023/07/24 00:57:54;;;;;;;4.05;2.75;;;;;;;;;;5048798;28;20271;-49
2023/07/24 01:00:20;;;;;;;5.25;2.53;;;;;;;;;;5053005;28;20183;-50
2023/07/24 01:02:46;;;;;;;4.28;2.80;;;;;;;;;;5056645;28;20186;-50
2023/07/24 01:05:14;;;;;;;4.15;3.05;;;;;;;;;;5055728;28;20206;-51
2023/07/24 01:07:41;;;;;;;4.03;3.03;;;;;;;;;;5043774;28;20197;-50
2023/07/24 01:10:07;;;;;;;4.32;2.53;;;;;;;;;;5043661;28;20211;-50
2023/07/24 01:12:38;;;;;;;3.83;2.78;;;;;;;;;;5054484;28;20260;-50
2023/07/24 01:15:04;;;;;;;3.88;2.85;;;;;;;;;;5044299;28;20229;-51
2023/07/24 01:17:32;;;;;;;3.65;2.78;;;;;;;;;;5054200;28;20187;-50
2023/07/24 01:19:59;;;;;;;4.50;2.85;;;;;;;;;;5053629;28;20170;-50
2023/07/24 01:22:35;;;;;;;4.10;2.67;;;;;;;;;;5058496;28;20175;-50
2023/07/24 01:25:13;;;;;;;4.40;2.63;;;;;;;;;;5047560;28;20228;-50
2023/07/24 01:27:43;;;;;;;4.28;3.25;;;;;;;;;;5053722;28;20210;-51
2023/07/24 01:30:09;;;;;;;4.35;3.50;;;;;;;;;;5048008;28;20499;-50
2023/07/24 01:32:35;;;;;;;4.95;3.00;;;;;;;;;;5047933;28;20465;-50
2023/07/24 01:35:01;;;;;;;4.70;3.30;;;;;;;;;;5047969;28;20179;-50
2023/07/24 01:37:27;;;;;;;4.65;2.92;;;;;;;;;;5050420;28;20229;-50
2023/07/24 01:39:54;;;;;;;6.93;3.63;;;;;;;;;;5052549;28;20286;-50
2023/07/24 01:42:20;;;;;;;4.90;3.15;;;;;;;;;;5049068;28;20502;-49
2023/07/24 01:44:51;;;;;;;4.80;3.05;;;;;;;;;;5049417;28;20450;-50
2023/07/24 01:47:17;;;;;;;4.38;3.50;;;;;;;;;;5039172;28;20184;-50
2023/07/24 01:49:43;;;;;;;4.38;3.05;;;;;;;;;;5049920;28;20190;-50
2023/07/24 01:52:09;;;;;;;12.20;3.08;;;;;;;;;;5050063;28;20183;-50
2023/07/24 01:54:35;;;;;;;6.47;3.20;;;;;;;;;;5054355;28;20210;-50
2023/07/24 01:57:01;;;;;;;3.55;2.83;;;;;;;;;;5050721;28;20198;-49
2023/07/24 01:59:27;;;;;;;3.85;2.80;;;;;;;;;;5050739;28;20571;-50
2023/07/24 02:01:53;;;;;;;4.25;2.95;;;;;;;;;;5048194;28;20178;-50
2023/07/24 02:04:21;;;;;;;4.70;3.17;;;;;;;;;;5054079;28;20521;-50
2023/07/24 02:06:48;;;;;;;4.40;3.40;;;;;;;;;;5054662;28;20176;-50
2023/07/24 02:09:13;;;;;;;5.07;3.53;;;;;;;;;;5054053;28;20477;-50
2023/07/24 02:11:39;;;;;;;3.88;2.70;;;;;;;;;;5056567;28;20183;-50
2023/07/24 02:14:05;;;;;;;5.35;3.20;;;;;;;;;;5053024;28;20569;-50
2023/07/24 02:16:31;;;;;;;4.20;3.10;;;;;;;;;;5052574;28;20211;-50
2023/07/24 02:18:57;;;;;;;4.97;3.00;;;;;;;;;;5045265;28;20234;-50
2023/07/24 02:21:23;;;;;;;4.72;3.13;;;;;;;;;;5055564;28;20187;-50
2023/07/24 02:23:49;;;;;;;4.40;3.00;;;;;;;;;;5049240;28;20577;-50
2023/07/24 02:26:15;;;;;;;5.63;3.08;;;;;;;;;;5053586;28;20485;-50
2023/07/24 02:28:41;;;;;;;6.65;3.38;;;;;;;;;;5050866;28;20236;-49
2023/07/24 02:31:07;;;;;;;4.90;3.25;;;;;;;;;;5056277;28;20229;-50
2023/07/24 02:33:33;;;;;;;5.13;3.50;;;;;;;;;;5055893;28;20232;-50
2023/07/24 02:36:01;;;;;;;4.57;3.22;;;;;;;;;;5055066;28;20604;-49
2023/07/24 02:38:27;;;;;;;5.43;3.10;;;;;;;;;;5048668;28;20467;-49
2023/07/24 02:40:53;;;;;;;4.88;3.40;;;;;;;;;;5051103;28;20175;-49
2023/07/24 02:43:19;;;;;;;4.70;3.00;;;;;;;;;;5043336;28;20467;-49
2023/07/24 02:45:45;;;;;;;4.05;3.22;;;;;;;;;;5047805;28;20176;-50
2023/07/24 02:48:11;;;;;;;6.85;3.65;;;;;;;;;;5053274;28;20190;-50
2023/07/24 02:50:37;;;;;;;5.63;3.55;;;;;;;;;;5055724;28;20187;-50
2023/07/24 02:53:04;;;;;;;5.53;3.47;;;;;;;;;;5048581;28;20259;-50
2023/07/24 02:55:30;;;;;;;4.97;3.35;;;;;;;;;;5049548;28;20486;-50
2023/07/24 02:57:56;;;;;;;4.90;3.40;;;;;;;;;;5052717;28;20232;-49
2023/07/24 03:00:22;;;;;;;4.47;3.15;;;;;;;;;;5052776;28;20313;-49
2023/07/24 03:02:47;;;;;;;4.65;3.28;;;;;;;;;;5048906;28;20567;-49
2023/07/24 03:05:13;;;;;;;4.72;3.47;;;;;;;;;;5054287;28;20563;-49
2023/07/24 03:07:39;;;;;;;4.80;3.20;;;;;;;;;;5054242;28;20179;-49
2023/07/24 03:10:05;;;;;;;4.75;3.38;;;;;;;;;;5055356;28;20175;-49
2023/07/24 03:12:31;;;;;;;4.68;3.20;;;;;;;;;;5051736;28;20199;-50
2023/07/24 03:14:57;;;;;;;5.20;3.50;;;;;;;;;;5049133;28;20515;-50
2023/07/24 03:17:23;;;;;;;4.35;3.33;;;;;;;;;;5053464;28;20258;-49
2023/07/24 03:19:49;;;;;;;5.47;3.28;;;;;;;;;;5055885;28;20178;-49
2023/07/24 03:22:15;;;;;;;6.95;3.45;;;;;;;;;;5063074;28;20179;-50
2023/07/24 03:24:41;;;;;;;5.88;3.33;;;;;;;;;;5076010;28;20208;-50
2023/07/24 03:27:07;;;;;;;6.82;3.90;;;;;;;;;;5069532;28;20293;-50
2023/07/24 03:29:33;;;;;;;5.47;3.80;;;;;;;;;;5055897;28;20403;-50
2023/07/24 03:31:59;;;;;;;4.53;3.40;;;;;;;;;;5049073;28;20186;-49
2023/07/24 03:34:25;;;;;;;6.00;3.40;;;;;;;;;;5048578;28;20184;-50
2023/07/24 03:36:51;;;;;;;6.25;3.83;;;;;;;;;;5051015;28;20450;-50
2023/07/24 03:39:17;;;;;;;4.70;3.70;;;;;;;;;;5047564;28;20254;-49
2023/07/24 03:41:43;;;;;;;5.25;3.65;;;;;;;;;;5047150;28;20194;-49
2023/07/24 03:44:09;;;;;;;6.47;3.80;;;;;;;;;;5045084;28;20196;-49
2023/07/24 03:46:35;;;;;;;5.97;3.78;;;;;;;;;;5039491;28;20219;-49
2023/07/24 03:49:01;;;;;;;10.65;3.58;;;;;;;;;;5051166;28;20222;-50
2023/07/24 03:51:27;;;;;;;7.35;3.83;;;;;;;;;;5053491;28;20614;-50
2023/07/24 03:53:53;;;;;;;6.38;3.53;;;;;;;;;;5056491;28;20258;-49
2023/07/24 03:56:19;;;;;;;5.25;3.67;;;;;;;;;;5048494;28;20455;-49
2023/07/24 03:58:45;;;;;;;5.80;3.75;;;;;;;;;;5052592;28;20175;-49
2023/07/24 04:01:12;;;;;;;5.72;3.65;;;;;;;;;;5050586;28;20203;-49
2023/07/24 04:03:38;;;;;;;7.30;4.07;;;;;;;;;;5048557;28;20812;-50
2023/07/24 04:06:04;;;;;;;5.35;3.45;;;;;;;;;;5050280;28;20179;-50
2023/07/24 04:08:30;;;;;;;6.65;3.70;;;;;;;;;;5047825;28;20275;-49
2023/07/24 04:10:56;;;;;;;5.82;3.65;;;;;;;;;;5055481;28;20892;-50
2023/07/24 04:13:22;;;;;;;6.18;3.80;;;;;;;;;;5054794;28;20220;-50
2023/07/24 04:15:48;;;;;;;7.10;3.97;;;;;;;;;;5055233;28;20295;-50
2023/07/24 04:18:14;;;;;;;7.03;3.53;;;;;;;;;;5055305;28;20171;-50
2023/07/24 04:20:40;;;;;;;5.85;3.92;;;;;;;;;;5052341;28;20184;-49
2023/07/24 04:23:06;;;;;;;5.25;3.50;;;;;;;;;;5054423;28;20183;-50
2023/07/24 04:25:32;;;;;;;4.45;3.55;;;;;;;;;;5047881;28;20199;-50
2023/07/24 04:27:58;;;;;;;5.68;3.95;;;;;;;;;;5054417;28;20179;-50
2023/07/24 04:30:23;;;;;;;4.32;3.50;;;;;;;;;;5046656;28;20192;-49
2023/07/24 04:32:50;;;;;;;7.22;4.25;;;;;;;;;;5050232;28;20187;-50
2023/07/24 04:35:16;;;;;;;6.80;3.67;;;;;;;;;;5054353;28;20186;-49
2023/07/24 04:37:42;;;;;;;6.28;4.10;;;;;;;;;;5049222;28;20477;-49
2023/07/24 04:40:08;;;;;;;8.25;4.03;;;;;;;;;;5047610;28;20179;-50
2023/07/24 04:42:34;;;;;;;6.38;4.10;;;;;;;;;;5053943;28;20229;-50
2023/07/24 04:45:00;;;;;;;6.72;4.38;;;;;;;;;;5048979;28;20183;-50
2023/07/24 04:47:26;;;;;;;5.43;3.92;;;;;;;;;;5053969;28;20179;-49
2023/07/24 04:49:52;;;;;;;7.38;3.92;;;;;;;;;;5054728;28;20258;-50
2023/07/24 04:52:18;;;;;;;5.65;3.42;;;;;;;;;;5052222;28;20183;-50
2023/07/24 04:54:44;;;;;;;7.28;3.72;;;;;;;;;;5041851;28;20619;-50
2023/07/24 04:57:10;;;;;;;6.30;3.65;;;;;;;;;;5042003;28;20207;-50
2023/07/24 04:59:35;;;;;;;5.68;3.90;;;;;;;;;;5058216;28;20226;-50
2023/07/24 05:02:01;;;;;;;8.55;3.78;;;;;;;;;;5044552;28;20190;-50
2023/07/24 05:04:27;;;;;;;5.20;3.72;;;;;;;;;;5049173;28;20457;-50
2023/07/24 05:06:53;;;;;;;6.03;3.80;;;;;;;;;;5053063;28;20489;-50
2023/07/24 05:09:19;;;;;;;5.57;3.88;;;;;;;;;;5053477;28;20187;-50
2023/07/24 05:11:45;;;;;;;4.43;3.20;;;;;;;;;;5046970;28;20195;-50
2023/07/24 05:14:11;;;;;;;4.75;3.30;;;;;;;;;;5054432;28;20266;-50
2023/07/24 05:16:37;;;;;;;6.70;4.10;;;;;;;;;;5052243;28;20588;-50
2023/07/24 05:19:03;;;;;;;6.32;4.18;;;;;;;;;;5051239;28;20182;-50
2023/07/24 05:21:29;;;;;;;5.50;3.60;;;;;;;;;;5058505;28;20186;-49
2023/07/24 05:23:55;;;;;;;7.03;3.88;;;;;;;;;;5053460;28;20273;-50
2023/07/24 05:26:22;;;;;;;5.70;4.40;;;;;;;;;;5052699;28;20262;-50
2023/07/24 05:28:48;;;;;;;6.38;4.13;;;;;;;;;;5052473;28;20765;-49
2023/07/24 05:31:14;;;;;;;6.40;4.07;;;;;;;;;;5042855;28;20203;-50
2023/07/24 05:33:40;;;;;;;4.50;3.83;;;;;;;;;;5052320;28;20191;-50
2023/07/24 05:36:06;;;;;;;6.40;4.28;;;;;;;;;;5054199;28;20198;-50
2023/07/24 05:38:31;;;;;;;7.22;4.07;;;;;;;;;;5048056;28;20290;-49
2023/07/24 05:40:58;;;;;;;6.65;4.60;;;;;;;;;;5057946;28;20179;-50
2023/07/24 05:43:24;;;;;;;7.40;4.82;;;;;;;;;;5056188;28;20187;-50
2023/07/24 05:45:51;;;;;;;7.13;4.45;;;;;;;;;;5047316;28;20194;-50
2023/07/24 05:48:17;;;;;;;7.28;4.68;;;;;;;;;;5047264;28;20179;-50
2023/07/24 05:50:43;;;;;;;6.05;4.35;;;;;;;;;;5059993;28;20596;-50
2023/07/24 05:53:09;;;;;;;7.10;4.38;;;;;;;;;;5064636;28;20261;-49
2023/07/24 05:55:35;;;;;;;6.70;4.45;;;;;;;;;;5060178;28;20584;-50
2023/07/24 05:58:01;;;;;;;6.38;4.43;;;;;;;;;;5059879;28;20189;-50
2023/07/24 06:00:27;;;;;;;8.30;4.30;;;;;;;;;;5053479;28;20179;-50
2023/07/24 06:02:54;;;;;;;7.07;4.35;;;;;;;;;;5052799;28;20261;-49
2023/07/24 06:05:20;;;;;;;8.50;4.75;;;;;;;;;;5040751;28;20226;-50
2023/07/24 06:07:48;;;;;;;6.45;4.50;;;;;;;;;;5049221;28;20175;-50
2023/07/24 06:10:14;;;;;;;7.57;4.50;;;;;;;;;;5058992;28;20179;-50
2023/07/24 06:12:40;;;;;;;6.18;4.25;;;;;;;;;;5059085;28;20269;-49
2023/07/24 06:15:07;;;;;;;6.28;4.57;;;;;;;;;;5056473;28;20182;-49
2023/07/24 06:17:33;;;;;;;6.63;4.05;;;;;;;;;;5047521;28;20210;-49
2023/07/24 06:19:59;;;;;;;7.72;4.68;;;;;;;;;;5058706;28;20584;-51
2023/07/24 06:22:25;;;;;;;5.50;4.40;;;;;;;;;;5063296;28;20206;-50
2023/07/24 06:24:51;;;;;;;8.50;4.93;;;;;;;;;;5054720;28;20198;-49
2023/07/24 06:27:17;;;;;;;7.03;4.40;;;;;;;;;;5059184;28;20468;-50
2023/07/24 06:29:43;;;;;;;6.75;4.43;;;;;;;;;;5055402;28;20293;-50
2023/07/24 06:32:09;;;;;;;6.90;5.10;;;;;;;;;;5060377;28;20290;-50
2023/07/24 06:34:35;;;;;;;6.07;4.47;;;;;;;;;;5058800;28;20274;-50
2023/07/24 06:37:01;;;;;;;6.90;5.03;;;;;;;;;;5059791;28;20234;-50
2023/07/24 06:39:28;;;;;;;7.72;4.75;;;;;;;;;;5056418;28;20182;-49
2023/07/24 06:41:54;;;;;;;6.53;4.43;;;;;;;;;;5059235;28;20273;-51
2023/07/24 06:44:20;;;;;;;7.53;4.30;;;;;;;;;;5058356;28;20190;-50
2023/07/24 06:46:46;;;;;;;7.85;5.00;;;;;;;;;;5057091;28;20187;-50
2023/07/24 06:49:12;;;;;;;6.38;4.60;;;;;;;;;;5059991;28;20228;-50
2023/07/24 06:51:41;;;;;;;7.82;4.63;;;;;;;;;;5057215;28;20186;-50
2023/07/24 06:54:07;;;;;;;8.30;4.57;;;;;;;;;;5061818;28;20548;-50
2023/07/24 06:56:33;;;;;;;8.40;4.60;;;;;;;;;;5056422;28;20207;-50
2023/07/24 06:58:58;;;;;;;7.55;4.90;;;;;;;;;;5056753;28;20179;-50
2023/07/24 07:01:24;;;;;;;8.52;4.50;;;;;;;;;;5047690;28;20649;-50
2023/07/24 07:03:50;;;;;;;6.95;4.47;;;;;;;;;;5045242;28;20454;-50
2023/07/24 07:06:16;;;;;;;8.85;4.95;;;;;;;;;;5056588;28;20577;-50
2023/07/24 07:08:42;;;;;;;7.85;5.13;;;;;;;;;;5055918;28;20296;-51
2023/07/24 07:11:08;;;;;;;6.78;4.53;;;;;;;;;;5076313;28;20588;-52
2023/07/24 07:13:34;;;;;;;7.78;4.70;;;;;;;;;;5076716;28;20206;-50
2023/07/24 07:16:00;;;;;;;7.03;4.68;;;;;;;;;;5076303;28;20468;-51
2023/07/24 07:18:26;;;;;;;10.07;4.60;;;;;;;;;;5076443;28;20542;-50
2023/07/24 07:20:53;;;;;;;9.20;5.53;;;;;;;;;;5073548;28;20188;-49
2023/07/24 07:23:19;;;;;;;8.73;5.38;;;;;;;;;;5069762;28;20178;-50
2023/07/24 07:25:45;;;;;;;6.95;4.60;;;;;;;;;;5054057;28;20210;-50
2023/07/24 07:28:12;;;;;;;6.80;4.88;;;;;;;;;;5056460;28;20259;-50
2023/07/24 07:30:37;;;;;;;9.93;4.88;;;;;;;;;;5055768;28;20187;-50
2023/07/24 07:33:05;;;;;;;7.55;5.10;;;;;;;;;;5055475;28;20197;-50
2023/07/24 07:35:32;;;;;;;8.40;5.63;;;;;;;;;;5055692;28;20191;-51
2023/07/24 07:37:58;;;;;;;6.97;4.82;;;;;;;;;;5055880;28;20175;-50
2023/07/24 07:40:24;;;;;;;7.78;5.50;;;;;;;;;;5049687;28;20175;-50
2023/07/24 07:42:50;;;;;;;6.35;4.70;;;;;;;;;;5050949;28;20248;-51
2023/07/24 07:45:16;;;;;;;6.28;4.50;;;;;;;;;;5055816;28;20293;-50
2023/07/24 07:47:41;;;;;;;6.40;4.45;;;;;;;;;;5055654;28;20274;-50
2023/07/24 07:50:08;;;;;;;7.38;4.47;;;;;;;;;;5055061;28;20178;-50
2023/07/24 07:52:33;;;;;;;6.68;4.50;;;;;;;;;;5063423;28;20265;-50
2023/07/24 07:54:59;;;;;;;6.95;4.97;;;;;;;;;;5055460;28;20262;-50
2023/07/24 07:57:25;;;;;;;7.85;4.22;;;;;;;;;;5051902;28;20336;-50
2023/07/24 07:59:51;;;;;;;7.50;4.55;;;;;;;;;;5045247;28;20423;-50
2023/07/24 08:02:17;;;;;;;13.38;5.03;;;;;;;;;;5046416;28;20217;-50
2023/07/24 08:04:43;;;;;;;7.40;4.38;;;;;;;;;;5045113;28;20184;-51
2023/07/24 08:07:09;;;;;;;7.15;4.60;;;;;;;;;;5051544;28;20179;-51
2023/07/24 08:09:37;;;;;;;5.82;3.97;;;;;;;;;;5054583;28;20874;-50
2023/07/24 08:12:04;;;;;;;6.45;4.20;;;;;;;;;;5055366;28;20559;-50
2023/07/24 08:14:30;;;;;;;6.57;4.50;;;;;;;;;;5048612;28;20183;-50
2023/07/24 08:16:56;;;;;;;6.72;4.25;;;;;;;;;;5049691;28;20682;-50
2023/07/24 08:19:22;;;;;;;6.53;4.22;;;;;;;;;;5052977;28;20269;-51
2023/07/24 08:21:48;;;;;;;6.47;4.50;;;;;;;;;;5057695;28;20190;-50
2023/07/24 08:24:14;;;;;;;6.63;4.07;;;;;;;;;;5055841;28;20191;-49
2023/07/24 08:26:40;;;;;;;7.28;4.35;;;;;;;;;;5051101;28;20240;-50
2023/07/24 08:29:06;;;;;;;5.72;4.22;;;;;;;;;;5055039;28;20175;-50
2023/07/24 08:31:32;;;;;;;5.88;4.28;;;;;;;;;;5051835;28;20274;-49
2023/07/24 08:33:58;;;;;;;6.50;3.97;;;;;;;;;;5054284;28;20270;-50
2023/07/24 08:36:24;;;;;;;5.55;3.58;;;;;;;;;;5049991;28;20545;-49
2023/07/24 08:38:50;;;;;;;6.15;3.80;;;;;;;;;;5052181;28;20199;-50
2023/07/24 08:41:16;;;;;;;6.45;4.05;;;;;;;;;;5054473;28;20185;-50
2023/07/24 08:43:42;;;;;;;6.20;3.80;;;;;;;;;;5053926;28;20186;-50
2023/07/24 08:46:09;;;;;;;5.85;4.13;;;;;;;;;;5052738;28;20183;-50
2023/07/24 08:48:36;;;;;;;5.88;3.85;;;;;;;;;;5047866;28;20191;-50
2023/07/24 08:51:03;;;;;;;6.32;4.20;;;;;;;;;;5052977;28;20511;-50
2023/07/24 08:53:36;;;;;;;7.53;5.07;;;;;;;;;;5049268;28;20413;-49
2023/07/24 08:56:09;;;;;;;7.43;5.65;;;;;;;;;;5052315;28;20198;-50
2023/07/24 08:58:35;;;;;;;7.90;4.47;;;;;;;;;;5047394;28;20453;-50
2023/07/24 09:01:02;;;;;;;6.63;4.70;;;;;;;;;;5051943;28;20191;-50
2023/07/24 09:03:28;;;;;;;10.40;4.80;;;;;;;;;;5045673;28;20548;-50
2023/07/24 09:05:54;;;;;;;7.70;4.65;;;;;;;;;;5051248;28;20261;-51
2023/07/24 09:08:31;;;;;;;8.43;5.15;;;;;;;;;;5054441;28;20211;-50
2023/07/24 09:10:57;;;;;;;8.13;4.75;;;;;;;;;;5053055;28;20281;-50
2023/07/24 09:13:22;;;;;;;8.35;5.07;;;;;;;;;;5053176;28;20183;-50
2023/07/24 09:15:48;;;;;;;7.72;5.10;;;;;;;;;;5053744;28;20214;-50
2023/07/24 09:18:16;;;;;;;8.52;5.03;;;;;;;;;;5054408;28;20432;-50
2023/07/24 09:20:43;;;;;;;8.25;5.45;;;;;;;;;;5050074;28;20262;-50
2023/07/24 09:23:09;;;;;;;9.02;5.70;;;;;;;;;;5066461;28;20214;-50
2023/07/24 09:25:36;;;;;;;9.98;5.22;;;;;;;;;;5054317;28;20195;-50
2023/07/24 09:28:02;;;;;;;9.05;5.05;;;;;;;;;;5054033;28;20187;-50
2023/07/24 09:30:27;;;;;;;9.45;4.97;;;;;;;;;;5053574;28;20278;-50
2023/07/24 09:32:54;;;;;;;8.65;5.07;;;;;;;;;;5053146;28;20290;-50
2023/07/24 09:35:25;;;;;;;9.65;5.72;;;;;;;;;;5053138;28;20183;-55
2023/07/24 09:37:51;;;;;;;9.73;5.18;;;;;;;;;;5046715;28;20199;-57
2023/07/24 09:40:17;;;;;;;8.77;5.50;;;;;;;;;;5053523;28;20473;-56
2023/07/24 09:42:43;;;;;;;9.10;5.47;;;;;;;;;;5053410;28;20257;-56
2023/07/24 09:45:09;;;;;;;8.98;5.15;;;;;;;;;;5051652;28;20179;-56
2023/07/24 09:47:35;;;;;;;7.78;5.25;;;;;;;;;;5047544;28;20184;-56
2023/07/24 09:50:05;;;;;;;7.18;4.88;;;;;;;;;;5051606;28;20565;-55
2023/07/24 09:52:31;;;;;;;9.57;5.30;;;;;;;;;;5052493;28;20243;-57
2023/07/24 09:55:04;;;;;;;9.18;5.35;;;;;;;;;;5045586;28;20183;-57
2023/07/24 09:57:31;;;;;;;9.55;5.95;;;;;;;;;;5050785;28;20215;-57
2023/07/24 09:59:57;;;;;;;7.88;5.32;;;;;;;;;;5053713;28;20179;-55
2023/07/24 10:02:24;;;;;;;8.45;5.55;;;;;;;;;;5044466;28;20266;-57
2023/07/24 10:04:50;;;;;;;7.82;5.60;;;;;;;;;;5050576;28;20221;-56
2023/07/24 10:07:16;;;;;;;8.68;5.68;;;;;;;;;;5052953;28;20175;-56
2023/07/24 10:09:45;;;;;;;8.15;5.35;;;;;;;;;;5053216;28;20179;-57
2023/07/24 10:12:11;;;;;;;9.40;6.20;;;;;;;;;;5046716;28;20176;-56
2023/07/24 10:14:38;;;;;;;8.85;5.80;;;;;;;;;;5047116;28;20455;-56
2023/07/24 10:17:04;;;;;;;8.82;5.50;;;;;;;;;;5050717;28;20203;-54
2023/07/24 10:19:37;;;;;;;10.32;5.95;;;;;;;;;;5048033;28;20179;-46
2023/07/24 10:22:03;;;;;;;6.80;4.97;;;;;;;;;;5058372;28;20566;-48
2023/07/24 10:24:30;;;;;;;10.40;5.93;;;;;;;;;;5055247;28;20286;-49
2023/07/24 10:26:57;;;;;;;8.57;5.47;;;;;;;;;;5054258;28;20179;-49
2023/07/24 10:29:26;;;;;;;8.88;5.72;;;;;;;;;;5055121;28;20210;-49
2023/07/24 10:31:55;;;;;;;8.52;5.35;;;;;;;;;;5054962;28;20247;-52
2023/07/24 10:34:21;;;;;;;7.88;5.28;;;;;;;;;;5057930;28;20194;-52
2023/07/24 10:36:47;;;;;;;9.73;6.50;;;;;;;;;;5057367;28;20219;-52
2023/07/24 10:39:14;;;;;;;8.68;5.80;;;;;;;;;;5056581;28;20183;-52
2023/07/24 10:41:40;;;;;;;10.60;6.88;;;;;;;;;;5056802;28;20183;-52
2023/07/24 10:44:06;;;;;;;8.85;5.72;;;;;;;;;;5056657;28;20321;-52
2023/07/24 10:46:39;;;;;;;9.52;6.20;;;;;;;;;;5056077;28;20187;-52
2023/07/24 10:49:05;;;;;;;9.98;5.75;;;;;;;;;;5056779;28;20179;-52
2023/07/24 10:51:37;;;;;;;9.35;6.00;;;;;;;;;;5056872;28;20207;-52
2023/07/24 10:54:03;;;;;;;11.20;6.10;;;;;;;;;;5058934;28;20233;-52
2023/07/24 10:56:29;;;;;;;14.23;6.82;;;;;;;;;;5048666;28;20195;-51
2023/07/24 10:58:55;;;;;;;8.75;5.63;;;;;;;;;;5052808;28;20193;-51
2023/07/24 11:01:21;;;;;;;11.27;5.50;;;;;;;;;;5056023;28;20202;-51
2023/07/24 11:03:47;;;;;;;13.40;6.82;;;;;;;;;;5052550;28;20201;-51
2023/07/24 11:06:15;;;;;;;11.65;6.35;;;;;;;;;;5055791;28;20197;-52
2023/07/24 11:08:41;;;;;;;11.20;6.18;;;;;;;;;;5055284;28;20274;-51
2023/07/24 11:11:08;;;;;;;11.82;6.07;;;;;;;;;;5051119;28;20672;-51
2023/07/24 11:13:36;;;;;;;9.98;6.28;;;;;;;;;;5056647;28;20270;-51
2023/07/24 11:16:06;;;;;;;10.75;6.25;;;;;;;;;;5055663;28;20214;-51
2023/07/24 11:18:32;;;;;;;10.55;5.97;;;;;;;;;;5056456;28;20743;-52
2023/07/24 11:20:58;;;;;;;7.10;5.28;;;;;;;;;;5055912;28;20262;-52
2023/07/24 11:23:24;;;;;;;9.77;5.63;;;;;;;;;;5072069;28;20457;-51
2023/07/24 11:25:54;;;;;;;6.85;5.22;;;;;;;;;;5066853;28;20183;-51
2023/07/24 11:28:21;;;;;;;8.32;4.90;;;;;;;;;;5039869;28;20210;-51
2023/07/24 11:30:47;;;;;;;10.82;5.25;;;;;;;;;;5048249;28;20197;-51
2023/07/24 11:33:14;;;;;;;9.07;5.05;;;;;;;;;;5043427;28;20258;-51
2023/07/24 11:35:40;;;;;;;8.75;5.45;;;;;;;;;;5036292;28;20207;-52
2023/07/24 11:38:10;;;;;;;10.23;5.28;;;;;;;;;;5044915;28;20190;-51
2023/07/24 11:40:36;;;;;;;7.72;5.20;;;;;;;;;;5054971;28;20183;-51
2023/07/24 11:43:02;;;;;;;10.10;5.93;;;;;;;;;;5053088;28;20229;-51
2023/07/24 11:45:28;;;;;;;14.15;6.40;;;;;;;;;;5053815;28;20258;-51
2023/07/24 11:47:55;;;;;;;9.57;6.07;;;;;;;;;;5052695;28;20266;-52
2023/07/24 11:50:22;;;;;;;7.35;5.07;;;;;;;;;;5054619;28;20167;-52
2023/07/24 11:52:49;;;;;;;9.80;6.18;;;;;;;;;;5066194;28;20202;-52
2023/07/24 11:55:15;;;;;;;10.75;5.93;;;;;;;;;;5065944;28;20175;-52
2023/07/24 11:57:42;;;;;;;9.38;5.80;;;;;;;;;;5049006;28;20264;-51
2023/07/24 12:00:18;;;;;;;8.93;5.53;;;;;;;;;;5049314;28;20455;-52
2023/07/24 12:02:44;;;;;;;11.82;5.43;;;;;;;;;;5048773;28;20245;-52
2023/07/24 12:05:10;;;;;;;8.68;4.10;;;;;;;;;;5055299;28;20594;-52
2023/07/24 12:07:37;;;;;;;7.10;3.85;;;;;;;;;;5055434;28;20294;-52
2023/07/24 12:10:04;;;;;;;5.45;3.65;;;;;;;;;;5055173;28;20254;-52
2023/07/24 12:12:39;;;;;;;9.48;3.72;;;;;;;;;;5045303;28;20211;-52
2023/07/24 12:15:06;;;;;;;5.65;3.47;;;;;;;;;;5054732;28;20201;-53
2023/07/24 12:17:32;;;;;;;5.72;3.30;;;;;;;;;;5043255;28;20271;-52
2023/07/24 12:19:58;;;;;;;5.22;3.20;;;;;;;;;;5047699;28;20197;-52
2023/07/24 12:22:24;;;;;;;4.03;2.97;;;;;;;;;;5058449;28;20453;-52
2023/07/24 12:24:50;;;;;;;4.18;3.28;;;;;;;;;;5055488;28;20277;-52
2023/07/24 12:27:15;;;;;;;4.90;3.20;;;;;;;;;;5046683;28;20183;-52
2023/07/24 12:29:41;;;;;;;5.78;3.80;;;;;;;;;;5052701;28;20186;-52
2023/07/24 12:32:07;;;;;;;5.25;3.22;;;;;;;;;;5048925;28;20182;-52
2023/07/24 12:34:33;;;;;;;4.35;3.15;;;;;;;;;;5047023;28;20195;-52
2023/07/24 12:36:59;;;;;;;6.20;3.33;;;;;;;;;;5045620;28;20211;-52
2023/07/24 12:39:25;;;;;;;4.55;3.08;;;;;;;;;;5054348;28;20179;-52
2023/07/24 12:41:51;;;;;;;3.78;2.97;;;;;;;;;;5048824;28;20203;-51
2023/07/24 12:44:17;;;;;;;4.55;3.05;;;;;;;;;;5054763;28;20183;-51
2023/07/24 12:46:43;;;;;;;4.93;3.00;;;;;;;;;;5054117;28;20187;-52
2023/07/24 12:49:09;;;;;;;4.00;2.80;;;;;;;;;;5052421;28;20210;-52
2023/07/24 12:51:35;;;;;;;6.10;3.45;;;;;;;;;;5044349;28;20265;-52
2023/07/24 12:54:01;;;;;;;6.47;3.10;;;;;;;;;;5053056;28;20464;-52
2023/07/24 12:56:27;;;;;;;4.63;3.50;;;;;;;;;;5047054;28;20207;-52
2023/07/24 12:58:53;;;;;;;5.43;3.70;;;;;;;;;;5049788;28;20438;-52
2023/07/24 13:01:19;;;;;;;6.88;3.97;;;;;;;;;;5053990;28;20542;-53
2023/07/24 13:03:44;;;;;;;7.80;4.75;;;;;;;;;;5050982;28;20494;-52
2023/07/24 13:06:10;;;;;;;6.03;4.15;;;;;;;;;;5053878;28;20190;-52
2023/07/24 13:08:36;;;;;;;6.68;4.38;;;;;;;;;;5047532;28;20462;-52
2023/07/24 13:11:02;;;;;;;9.15;4.47;;;;;;;;;;5051893;28;20191;-52
2023/07/24 13:13:30;;;;;;;7.22;4.38;;;;;;;;;;5054432;28;20179;-52
2023/07/24 13:15:56;;;;;;;8.43;5.43;;;;;;;;;;5054381;28;20257;-52
2023/07/24 13:18:22;;;;;;;6.05;4.60;;;;;;;;;;5046036;28;20648;-52
2023/07/24 13:20:48;;;;;;;8.00;5.28;;;;;;;;;;5053855;28;20650;-52
2023/07/24 13:23:14;;;;;;;6.97;4.80;;;;;;;;;;5058672;28;20176;-52
2023/07/24 13:25:40;;;;;;;7.45;5.00;;;;;;;;;;5049168;28;20628;-52
2023/07/24 13:28:06;;;;;;;6.78;5.20;;;;;;;;;;5053415;28;20451;-52
2023/07/24 13:30:32;;;;;;;10.30;5.15;;;;;;;;;;5053860;28;20187;-52
2023/07/24 13:32:58;;;;;;;7.88;5.40;;;;;;;;;;5053860;28;20195;-52
2023/07/24 13:35:23;;;;;;;9.13;5.30;;;;;;;;;;5054309;28;20179;-52
2023/07/24 13:37:49;;;;;;;9.80;5.47;;;;;;;;;;5053550;28;20186;-52
2023/07/24 13:40:15;;;;;;;10.18;6.35;;;;;;;;;;5051794;28;20190;-52
2023/07/24 13:42:41;;;;;;;8.00;5.50;;;;;;;;;;5051457;28;20179;-52
2023/07/24 13:45:08;;;;;;;9.80;6.07;;;;;;;;;;5049392;28;20181;-52
2023/07/24 13:47:34;;;;;;;9.52;5.90;;;;;;;;;;5053058;28;20213;-53
2023/07/24 13:50:03;;;;;;;8.80;5.80;;;;;;;;;;5045409;28;20222;-52
2023/07/24 13:52:29;;;;;;;8.68;5.80;;;;;;;;;;5060939;28;20281;-52
2023/07/24 13:54:54;;;;;;;7.60;5.55;;;;;;;;;;5073868;28;20170;-53
2023/07/24 13:57:21;;;;;;;8.55;5.80;;;;;;;;;;5047327;28;20583;-52
2023/07/24 13:59:47;;;;;;;8.88;5.80;;;;;;;;;;5051661;28;20187;-52
2023/07/24 14:02:13;;;;;;;8.98;6.03;;;;;;;;;;5048092;28;20187;-52
2023/07/24 14:04:39;;;;;;;8.00;5.55;;;;;;;;;;5057716;28;20183;-52
2023/07/24 14:07:05;;;;;;;11.93;5.88;;;;;;;;;;5055868;28;20224;-52
2023/07/24 14:09:32;;;;;;;9.48;5.93;;;;;;;;;;5057017;28;20194;-52
2023/07/24 14:11:58;;;;;;;10.18;6.00;;;;;;;;;;5056774;28;20604;-52
2023/07/24 14:14:24;;;;;;;8.38;5.70;;;;;;;;;;5052658;28;20191;-52
2023/07/24 14:16:50;;;;;;;8.73;5.75;;;;;;;;;;5049163;28;20216;-52
2023/07/24 14:19:17;;;;;;;8.88;5.68;;;;;;;;;;5057519;28;20187;-52
2023/07/24 14:21:43;;;;;;;8.40;5.88;;;;;;;;;;5055842;28;20167;-52
2023/07/24 14:24:09;;;;;;;10.95;6.20;;;;;;;;;;5077132;28;20190;-52
2023/07/24 14:26:36;;;;;;;8.63;5.63;;;;;;;;;;5065589;28;20183;-52
2023/07/24 14:29:03;;;;;;;7.63;5.50;;;;;;;;;;5051324;28;20266;-52
2023/07/24 14:31:29;;;;;;;9.70;5.80;;;;;;;;;;5041834;28;20190;-53
2023/07/24 14:33:55;;;;;;;8.35;5.60;;;;;;;;;;5053953;28;20195;-52
2023/07/24 14:36:21;;;;;;;10.75;5.43;;;;;;;;;;5053058;28;20211;-52
2023/07/24 14:38:47;;;;;;;10.85;5.75;;;;;;;;;;5042188;28;20198;-52